Al Aqiq, Saudi Arabia
Current Conditions -  °F | °C
As of 1:00 AM on Monday 22 Dec 2014 (Local Time) from OEBA Reporting Station
Clear Clear  
Wind Chill: 63°   Ceiling: Unl
Heat Index: 63°   Visibility: 6mi
Dew Point: 43°   Wind: 6mph
Humidity: 48%   Direction: 100°E
Pressure: 30.18"   Gusts: NA
Location:  20.26°N, 41.67°E
Report Text: OEBA 212200Z 10005KT CAVOK 17/06 Q1022 NOSIG
Loading
Personal Weather Stations






























Interactive Weather Map New forecast layout! Learn more

10-Day Weather Forecast

Advertisements
Track Severe Weather on mobile